CheckWX is a tool to help pilots better visualize weather data.  It is not intended as a substitute for an official pre-flight weather briefing.

07:59:31 UTC

KSMX TAF
Santa Maria Pub / Capt G Allan Hancock Field Airport
Santa Maria, California, USA
KSMX 230642Z 2307/2406 30006KT P6SM OVC030 FM230900 VRB03KT P6SM BKN025 FM231200 VRB03KT 4SM BR OVC015 FM232000 32010KT P6SM OVC035 FM232200 32012KT P6SM BKN250 FM240000 32012G22KT P6SM BKN250

Feb-23@
07:00 UTC

Feb-23 @ 07:00 UTC

Feb-23@
09:00 UTC

Feb-23 @ 09:00 UTC

KSMX 230642Z 2307/2406 30006KT P6SM OVC030
Wind
  • 300° at 6 KTS
Cloud Levels
  • Overcast at 3,000' AGL

Feb-23@
09:00 UTC

Feb-23 @ 09:00 UTC

Feb-23@
12:00 UTC

Feb-23 @ 12:00 UTC

FM230900 VRB03KT P6SM BKN025

From

From Standard forecast or significant change

Wind
  • Variable at 3 KTS
Cloud Levels
  • Broken at 2,500' AGL

Feb-23@
12:00 UTC

Feb-23 @ 12:00 UTC

Feb-23@
20:00 UTC

Feb-23 @ 20:00 UTC

FM231200 VRB03KT 4SM BR OVC015

From

From Standard forecast or significant change

Wind
  • Variable at 3 KTS
Conditions
Mist
Cloud Levels
  • Overcast at 1,500' AGL

Feb-23@
20:00 UTC

Feb-23 @ 20:00 UTC

Feb-23@
22:00 UTC

Feb-23 @ 22:00 UTC

FM232000 32010KT P6SM OVC035

From

From Standard forecast or significant change

Wind
  • 320° at 10 KTS
Cloud Levels
  • Overcast at 3,500' AGL

Feb-23@
22:00 UTC

Feb-23 @ 22:00 UTC

Feb-24@
00:00 UTC

Feb-24 @ 00:00 UTC

FM232200 32012KT P6SM BKN250

From

From Standard forecast or significant change

Wind
  • 320° at 12 KTS
Cloud Levels
  • Broken at 25,000' AGL

Feb-24@
00:00 UTC

Feb-24 @ 00:00 UTC

Feb-24@
06:00 UTC

Feb-24 @ 06:00 UTC

FM240000 32012G22KT P6SM BKN250

From

From Standard forecast or significant change

Wind
  • 320° at 12 KTS
  • {Gusting to 22 KTS
Cloud Levels
  • Broken at 25,000' AGL